createdAt,value
2022-09-04T00:00:33.400Z,13.13
2022-09-04T00:03:21.921Z,13.11
2022-09-04T00:05:54.636Z,13.11
2022-09-04T00:08:50.436Z,13.08
2022-09-04T00:11:32.246Z,13.06
2022-09-04T00:14:03.765Z,13.05
2022-09-04T00:16:47.124Z,13.04
2022-09-04T00:19:21.945Z,13.02
2022-09-04T00:22:01.015Z,13.00
2022-09-04T00:24:36.795Z,12.99
2022-09-04T00:27:19.896Z,12.95
2022-09-04T00:30:07.976Z,12.92
2022-09-04T00:32:40.959Z,12.87
2022-09-04T00:35:21.528Z,12.84
2022-09-04T00:38:26.894Z,12.82
2022-09-04T00:41:27.956Z,12.80
2022-09-04T00:44:09.714Z,12.77
2022-09-04T00:47:06.206Z,12.74
2022-09-04T00:50:01.907Z,12.72
2022-09-04T00:52:42.161Z,12.70
2022-09-04T00:55:39.121Z,12.68
2022-09-04T00:58:16.995Z,12.67
2022-09-04T01:00:47.644Z,12.62
2022-09-04T01:03:30.978Z,12.59
2022-09-04T01:06:34.374Z,12.57
2022-09-04T01:09:16.635Z,12.56
2022-09-04T01:11:56.431Z,12.54
2022-09-04T01:14:56.179Z,12.54
2022-09-04T01:17:52.894Z,12.54
2022-09-04T01:20:44.823Z,12.53
2022-09-04T01:23:45.318Z,12.52
2022-09-04T01:26:28.167Z,12.49
2022-09-04T01:29:45.139Z,12.50
2022-09-04T01:32:41.627Z,12.50
2022-09-04T01:35:34.703Z,12.51
2022-09-04T01:38:16.689Z,12.51
2022-09-04T01:40:51.611Z,12.51
2022-09-04T01:43:21.603Z,12.51
2022-09-04T01:46:08.281Z,12.49
2022-09-04T01:48:39.480Z,12.47
2022-09-04T01:51:24.973Z,12.46
2022-09-04T01:54:38.060Z,12.43
2022-09-04T01:57:23.815Z,12.44
2022-09-04T02:00:12.059Z,12.45
2022-09-04T02:03:02.426Z,12.45
2022-09-04T02:05:48.622Z,12.46
2022-09-04T02:08:48.877Z,12.46
2022-09-04T02:11:28.479Z,12.48
2022-09-04T02:13:56.549Z,12.50
2022-09-04T02:16:47.819Z,12.52
2022-09-04T02:19:35.132Z,12.55
2022-09-04T02:22:20.159Z,12.57
2022-09-04T02:25:18.074Z,12.58
2022-09-04T02:28:09.709Z,12.62
2022-09-04T02:30:54.157Z,12.64
2022-09-04T02:33:48.229Z,12.65
2022-09-04T02:36:31.558Z,12.65
2022-09-04T02:39:13.223Z,12.66
2022-09-04T02:42:04.073Z,12.66
2022-09-04T02:44:54.801Z,12.66
2022-09-04T02:47:46.403Z,12.63
2022-09-04T02:50:31.089Z,12.61
2022-09-04T02:53:37.908Z,12.62
2022-09-04T02:56:43.902Z,12.62
2022-09-04T02:59:50.563Z,12.61
2022-09-04T03:02:26.611Z,12.61
2022-09-04T03:05:05.237Z,12.59
2022-09-04T03:07:41.245Z,12.55
2022-09-04T03:10:20.211Z,12.53
2022-09-04T03:13:11.125Z,12.51
2022-09-04T03:15:54.807Z,12.46
2022-09-04T03:18:57.052Z,12.41
2022-09-04T03:21:53.075Z,12.37
2022-09-04T03:25:02.017Z,12.31
2022-09-04T03:27:33.253Z,12.27
2022-09-04T03:30:04.273Z,12.23
2022-09-04T03:32:47.528Z,12.19
2022-09-04T03:35:45.213Z,12.16
2022-09-04T03:38:24.710Z,12.12
2022-09-04T03:41:17.107Z,12.08
2022-09-04T03:44:27.955Z,12.07
2022-09-04T03:47:40.880Z,12.04
2022-09-04T03:50:23.382Z,12.02
2022-09-04T03:53:16.315Z,12.00
2022-09-04T03:56:36.335Z,11.95
2022-09-04T03:59:26.324Z,11.92
2022-09-04T04:02:12.506Z,11.92
2022-09-04T04:04:54.577Z,11.91
2022-09-04T04:07:25.285Z,11.89
2022-09-04T04:10:14.083Z,11.88
2022-09-04T04:13:12.429Z,11.90
2022-09-04T04:15:57.946Z,11.91
2022-09-04T04:18:36.467Z,11.91
2022-09-04T04:21:38.377Z,11.92
2022-09-04T04:24:30.095Z,11.95
2022-09-04T04:27:25.796Z,12.00
2022-09-04T04:30:05.935Z,12.03
2022-09-04T04:32:55.918Z,12.06
2022-09-04T04:36:02.845Z,12.09
2022-09-04T04:39:29.488Z,12.09
2022-09-04T04:42:05.963Z,12.10
2022-09-04T04:45:19.248Z,12.12
2022-09-04T04:48:29.537Z,12.14
2022-09-04T04:51:09.744Z,12.15
2022-09-04T04:54:09.793Z,12.19
2022-09-04T04:56:46.378Z,12.25
2022-09-04T04:59:35.264Z,12.22
2022-09-04T05:02:32.693Z,12.26
2022-09-04T05:05:30.023Z,12.32
2022-09-04T05:08:10.263Z,12.41
2022-09-04T05:11:07.053Z,12.53
2022-09-04T05:14:09.415Z,12.75
2022-09-04T05:16:57.256Z,12.94
2022-09-04T05:19:35.926Z,13.02
2022-09-04T05:22:34.303Z,13.12
2022-09-04T05:25:19.587Z,13.22
2022-09-04T05:27:59.435Z,13.32
2022-09-04T05:30:56.133Z,13.40
2022-09-04T05:33:40.564Z,13.49
2022-09-04T05:36:26.330Z,13.60
2022-09-04T05:39:26.636Z,13.77
2022-09-04T05:42:07.109Z,13.97
2022-09-04T05:44:54.300Z,14.16
2022-09-04T05:47:50.885Z,14.27
2022-09-04T05:50:47.109Z,14.40
2022-09-04T05:53:42.376Z,14.53
2022-09-04T05:56:34.746Z,14.72
2022-09-04T05:59:06.231Z,14.85
2022-09-04T06:01:53.803Z,14.98
2022-09-04T06:04:40.165Z,15.10
2022-09-04T06:07:27.747Z,15.22
2022-09-04T06:10:11.400Z,15.37
2022-09-04T06:12:58.456Z,15.50
2022-09-04T06:15:51.052Z,15.64
2022-09-04T06:18:37.321Z,15.79
2022-09-04T06:21:25.437Z,15.94
2022-09-04T06:24:25.769Z,16.04
2022-09-04T06:27:04.894Z,16.26
2022-09-04T06:30:05.593Z,16.54
2022-09-04T06:32:59.117Z,16.80
2022-09-04T06:35:36.381Z,17.03
2022-09-04T06:38:31.444Z,17.31
2022-09-04T06:41:41.115Z,17.80
2022-09-04T06:44:29.583Z,18.24
2022-09-04T06:47:19.460Z,18.52
2022-09-04T06:50:09.263Z,18.78
2022-09-04T06:53:16.493Z,19.08
2022-09-04T06:55:55.629Z,19.32
2022-09-04T06:58:30.170Z,19.42
2022-09-04T07:01:26.799Z,19.47
2022-09-04T07:04:16.418Z,19.33
2022-09-04T07:07:10.151Z,19.35
2022-09-04T07:10:01.844Z,19.40
2022-09-04T07:13:11.350Z,19.49
2022-09-04T07:16:04.483Z,19.50
2022-09-04T07:19:08.072Z,19.40
2022-09-04T07:22:00.723Z,19.36
2022-09-04T07:24:47.548Z,19.19
2022-09-04T07:27:25.318Z,19.14
2022-09-04T07:30:07.346Z,19.15
2022-09-04T07:32:41.502Z,19.02
2022-09-04T07:35:41.064Z,18.66
2022-09-04T07:38:50.774Z,18.53
2022-09-04T07:41:32.929Z,18.63
2022-09-04T07:44:10.028Z,18.81
2022-09-04T07:46:51.345Z,18.82
2022-09-04T07:49:32.300Z,18.91
2022-09-04T07:52:30.946Z,18.94
2022-09-04T07:55:15.488Z,19.07
2022-09-04T07:57:58.325Z,19.16
2022-09-04T08:00:54.897Z,19.17
2022-09-04T08:03:54.103Z,19.15
2022-09-04T08:06:51.327Z,19.09
2022-09-04T08:09:44.283Z,19.16
2022-09-04T08:12:44.934Z,19.29
2022-09-04T08:15:43.240Z,19.37
2022-09-04T08:18:21.520Z,19.46
2022-09-04T08:21:35.762Z,19.51
2022-09-04T08:24:32.986Z,19.58
2022-09-04T08:27:52.690Z,19.60
2022-09-04T08:30:21.999Z,19.64
2022-09-04T08:33:27.661Z,19.71
2022-09-04T08:36:10.577Z,19.76
2022-09-04T08:38:55.665Z,19.92
2022-09-04T08:41:49.610Z,20.22
2022-09-04T08:44:54.395Z,20.39
2022-09-04T08:48:00.684Z,20.42
2022-09-04T08:50:39.665Z,20.21
2022-09-04T08:54:11.094Z,20.22
2022-09-04T08:57:24.178Z,20.32
2022-09-04T09:00:17.284Z,20.70
2022-09-04T09:03:13.875Z,21.06
2022-09-04T09:06:07.926Z,21.43
2022-09-04T09:09:28.751Z,21.66
2022-09-04T09:12:40.271Z,21.78
2022-09-04T09:15:24.976Z,21.90
2022-09-04T09:18:25.126Z,22.02
2022-09-04T09:21:07.040Z,22.15
2022-09-04T09:23:41.664Z,22.14
2022-09-04T09:26:27.906Z,22.18
2022-09-04T09:29:35.840Z,22.31
2022-09-04T09:32:18.113Z,22.40
2022-09-04T09:35:09.898Z,22.47
2022-09-04T09:37:42.546Z,22.63
2022-09-04T09:40:32.003Z,22.73
2022-09-04T09:43:10.754Z,22.75
2022-09-04T09:46:06.144Z,22.81
2022-09-04T09:49:26.555Z,22.95
2022-09-04T09:52:17.401Z,23.04
2022-09-04T09:55:18.033Z,23.07
2022-09-04T09:58:19.780Z,23.20
2022-09-04T10:01:09.519Z,23.25
2022-09-04T10:03:39.531Z,23.23
2022-09-04T10:06:13.467Z,23.18
2022-09-04T10:09:19.749Z,23.14
2022-09-04T10:12:41.721Z,23.17
2022-09-04T10:15:36.003Z,23.24
2022-09-04T10:18:33.528Z,23.23
2022-09-04T10:21:39.527Z,23.15
2022-09-04T10:24:22.455Z,23.14
2022-09-04T10:27:15.195Z,23.16
2022-09-04T10:29:45.914Z,23.22
2022-09-04T10:33:07.933Z,23.28
2022-09-04T10:35:41.894Z,23.36
2022-09-04T10:38:34.585Z,23.44
2022-09-04T10:41:42.751Z,23.55
2022-09-04T10:44:40.495Z,23.63
2022-09-04T10:47:30.295Z,23.66
2022-09-04T10:50:25.834Z,23.77
2022-09-04T10:53:10.634Z,23.85
2022-09-04T10:56:04.170Z,23.83
2022-09-04T10:58:52.461Z,23.82
2022-09-04T11:01:39.756Z,23.90
2022-09-04T11:04:45.932Z,23.89
2022-09-04T11:07:38.911Z,23.97
2022-09-04T11:10:16.558Z,24.02
2022-09-04T11:13:09.413Z,24.01
2022-09-04T11:16:18.511Z,24.08
2022-09-04T11:19:21.186Z,24.11
2022-09-04T11:22:04.387Z,24.14
2022-09-04T11:24:55.836Z,24.11
2022-09-04T11:28:02.330Z,24.09
2022-09-04T11:30:48.693Z,24.10
2022-09-04T11:33:52.599Z,24.07
2022-09-04T11:36:44.050Z,24.10
2022-09-04T11:39:37.101Z,24.15
2022-09-04T11:42:30.516Z,24.13
2022-09-04T11:45:27.572Z,24.14
2022-09-04T11:48:49.854Z,24.16
2022-09-04T11:51:34.520Z,24.12
2022-09-04T11:54:58.799Z,24.20
2022-09-04T11:58:05.259Z,24.17
2022-09-04T12:00:59.509Z,24.20
2022-09-04T12:03:54.028Z,24.27
2022-09-04T12:06:37.754Z,24.33
2022-09-04T12:09:48.556Z,24.33
2022-09-04T12:12:40.839Z,24.30
2022-09-04T12:15:28.571Z,24.29
2022-09-04T12:18:00.570Z,24.34
2022-09-04T12:20:42.704Z,24.39
2022-09-04T12:23:22.615Z,24.36
2022-09-04T12:26:03.959Z,24.38
2022-09-04T12:29:06.743Z,24.40
2022-09-04T12:32:16.913Z,24.40
2022-09-04T12:35:14.158Z,24.29
2022-09-04T12:38:03.730Z,24.27
2022-09-04T12:40:52.516Z,24.28
2022-09-04T12:43:45.286Z,24.32
2022-09-04T12:46:39.530Z,24.26
2022-09-04T12:49:47.659Z,24.33
2022-09-04T12:52:51.830Z,24.47
2022-09-04T12:55:23.603Z,24.63
2022-09-04T12:58:26.390Z,24.75
2022-09-04T13:01:16.401Z,24.84
2022-09-04T13:04:21.097Z,24.92
2022-09-04T13:06:59.637Z,24.97
2022-09-04T13:09:55.047Z,24.99
2022-09-04T13:12:46.863Z,25.04
2022-09-04T13:15:36.770Z,25.13
2022-09-04T13:18:14.465Z,25.17
2022-09-04T13:20:45.656Z,25.05
2022-09-04T13:23:37.043Z,25.09
2022-09-04T13:26:25.021Z,25.17
2022-09-04T13:29:03.925Z,25.23
2022-09-04T13:32:12.184Z,25.28
2022-09-04T13:35:19.534Z,25.32
2022-09-04T13:38:06.223Z,25.34
2022-09-04T13:41:02.683Z,25.33
2022-09-04T13:43:43.003Z,25.35
2022-09-04T13:46:17.870Z,25.32
2022-09-04T13:49:00.777Z,25.30
2022-09-04T13:51:34.490Z,25.31
2022-09-04T13:54:13.957Z,25.30
2022-09-04T13:57:10.741Z,25.28
2022-09-04T13:59:38.872Z,25.23
2022-09-04T14:02:12.630Z,25.18
2022-09-04T14:04:48.086Z,25.10
2022-09-04T14:07:25.785Z,25.07
2022-09-04T14:09:59.756Z,25.09
2022-09-04T14:12:55.554Z,25.13
2022-09-04T14:15:58.272Z,25.21
2022-09-04T14:19:15.830Z,25.20
2022-09-04T14:22:28.194Z,25.18
2022-09-04T14:25:18.828Z,25.16
2022-09-04T14:28:14.762Z,25.20
2022-09-04T14:31:12.344Z,25.20
2022-09-04T14:34:02.223Z,25.16
2022-09-04T14:36:59.931Z,25.07
2022-09-04T14:39:41.055Z,25.00
2022-09-04T14:42:29.818Z,24.75
2022-09-04T14:45:34.093Z,24.42
2022-09-04T14:48:07.579Z,24.20
2022-09-04T14:50:50.753Z,24.06
2022-09-04T14:53:26.817Z,23.98
2022-09-04T14:56:19.138Z,23.86
2022-09-04T14:59:02.885Z,23.76
2022-09-04T15:01:35.451Z,23.71
2022-09-04T15:04:23.800Z,23.64
2022-09-04T15:07:11.426Z,23.59
2022-09-04T15:09:44.914Z,23.55
2022-09-04T15:12:36.847Z,23.49
2022-09-04T15:15:24.010Z,23.42
2022-09-04T15:18:05.688Z,23.39
2022-09-04T15:20:48.693Z,23.37
2022-09-04T15:23:48.928Z,23.26
2022-09-04T15:27:03.356Z,23.11
2022-09-04T15:30:02.878Z,22.96
2022-09-04T15:32:48.645Z,22.82
2022-09-04T15:35:32.702Z,22.78
2022-09-04T15:38:31.020Z,22.73
2022-09-04T15:41:37.254Z,22.67
2022-09-04T15:44:33.822Z,22.66
2022-09-04T15:47:32.493Z,22.69
2022-09-04T15:50:19.320Z,22.65
2022-09-04T15:53:14.735Z,22.61
2022-09-04T15:55:47.048Z,22.59
2022-09-04T15:58:25.513Z,22.62
2022-09-04T16:01:06.635Z,22.61
2022-09-04T16:03:54.842Z,22.57
2022-09-04T16:07:01.962Z,22.51
2022-09-04T16:09:50.506Z,22.43
2022-09-04T16:12:29.335Z,22.38
2022-09-04T16:15:10.632Z,22.33
2022-09-04T16:17:47.930Z,22.32
2022-09-04T16:20:38.558Z,22.30
2022-09-04T16:23:10.465Z,22.21
2022-09-04T16:25:49.905Z,22.16
2022-09-04T16:28:34.956Z,22.11
2022-09-04T16:31:16.745Z,22.04
2022-09-04T16:33:52.188Z,21.92
2022-09-04T16:36:29.090Z,21.82
2022-09-04T16:39:14.615Z,21.75
2022-09-04T16:41:51.170Z,21.71
2022-09-04T16:44:26.086Z,21.62
2022-09-04T16:47:09.285Z,21.52
2022-09-04T16:50:01.317Z,21.44
2022-09-04T16:52:43.963Z,21.36
2022-09-04T16:55:32.387Z,21.28
2022-09-04T16:58:03.734Z,21.22
2022-09-04T17:00:47.658Z,21.15
2022-09-04T17:03:47.584Z,21.09
2022-09-04T17:06:41.822Z,21.02
2022-09-04T17:09:24.950Z,20.93
2022-09-04T17:11:58.464Z,20.86
2022-09-04T17:14:59.043Z,20.76
2022-09-04T17:17:29.817Z,20.68
2022-09-04T17:20:09.858Z,20.64
2022-09-04T17:29:01.670Z,20.60
2022-09-04T17:29:11.933Z,20.54
2022-09-04T17:29:33.743Z,20.49
2022-09-04T17:33:36.876Z,20.42
2022-09-04T17:40:35.279Z,20.35
2022-09-04T17:40:52.365Z,20.27
2022-09-04T17:42:09.522Z,20.20
2022-09-04T17:44:54.452Z,20.15
2022-09-04T17:47:44.719Z,20.13
2022-09-04T17:50:22.743Z,20.11
2022-09-04T17:53:12.091Z,20.09
2022-09-04T17:56:14.946Z,20.06
2022-09-04T17:58:51.720Z,20.03
2022-09-04T18:01:26.112Z,19.99
2022-09-04T18:04:23.934Z,19.96
2022-09-04T18:07:21.842Z,19.92
2022-09-04T18:10:06.362Z,19.88
2022-09-04T18:12:39.654Z,19.83
2022-09-04T18:15:39.515Z,19.79
2022-09-04T18:18:37.498Z,19.75
2022-09-04T18:21:24.306Z,19.69
2022-09-04T18:24:21.275Z,19.64
2022-09-04T18:27:00.619Z,19.60
2022-09-04T18:30:57.173Z,19.55
2022-09-04T18:37:16.734Z,19.47
2022-09-04T18:37:17.417Z,19.51
2022-09-04T18:39:08.880Z,19.43
2022-09-04T18:47:53.318Z,19.38
2022-09-04T18:50:29.498Z,19.33
2022-09-04T18:50:45.736Z,19.28
2022-09-04T18:53:43.545Z,19.13
2022-09-04T18:56:28.844Z,19.07
2022-09-04T18:59:06.136Z,19.01
2022-09-04T19:01:46.760Z,18.97
2022-09-04T19:04:18.734Z,18.91
2022-09-04T19:07:07.189Z,18.86
2022-09-04T19:10:09.735Z,18.82
2022-09-04T19:12:47.640Z,18.77
2022-09-04T19:15:46.022Z,18.71
2022-09-04T19:18:22.040Z,18.66
2022-09-04T19:20:55.645Z,18.62
2022-09-04T19:23:53.664Z,18.56
2022-09-04T19:26:37.047Z,18.49
2022-09-04T19:29:12.655Z,18.44
2022-09-04T19:32:07.407Z,18.38
2022-09-04T19:35:06.574Z,18.32
2022-09-04T19:42:26.915Z,18.26
2022-09-04T19:45:57.292Z,18.20
2022-09-04T19:46:14.129Z,18.11
2022-09-04T19:47:27.592Z,18.03
2022-09-04T19:53:19.336Z,17.95
2022-09-04T19:53:42.115Z,17.87
2022-09-04T19:57:31.963Z,17.82
2022-09-04T19:59:42.128Z,17.77
2022-09-04T20:02:30.322Z,17.72
2022-09-04T20:05:04.180Z,17.67
2022-09-04T20:07:50.576Z,17.63
2022-09-04T20:10:42.506Z,17.57
2022-09-04T20:13:19.785Z,17.51
2022-09-04T20:16:02.303Z,17.44
2022-09-04T20:18:42.459Z,17.38
2022-09-04T20:21:32.702Z,17.32
2022-09-04T20:24:24.129Z,17.26
2022-09-04T20:27:06.104Z,17.21
2022-09-04T20:29:54.721Z,17.14
2022-09-04T20:33:06.031Z,17.05
2022-09-04T20:36:05.132Z,17.00
2022-09-04T20:38:50.171Z,16.95
2022-09-04T20:41:48.623Z,16.91
2022-09-04T20:44:47.619Z,16.85
2022-09-04T20:52:41.081Z,16.80
2022-09-04T20:52:51.517Z,16.75
2022-09-04T20:54:04.413Z,16.71
2022-09-04T21:00:54.803Z,16.68
2022-09-04T21:03:13.706Z,16.66
2022-09-04T21:03:34.452Z,16.65
2022-09-04T21:06:12.203Z,16.63
2022-09-04T21:09:13.296Z,16.61
2022-09-04T21:11:47.533Z,16.59
2022-09-04T21:14:44.927Z,16.57
2022-09-04T21:17:35.101Z,16.54
2022-09-04T21:20:29.266Z,16.53
2022-09-04T21:23:35.430Z,16.51
2022-09-04T21:26:20.197Z,16.49
2022-09-04T21:29:11.596Z,16.47
2022-09-04T21:32:12.256Z,16.44
2022-09-04T21:35:00.239Z,16.43
2022-09-04T21:37:47.154Z,16.41
2022-09-04T21:40:49.738Z,16.40
2022-09-04T21:43:49.987Z,16.36
2022-09-04T21:46:31.545Z,16.33
2022-09-04T21:49:27.049Z,16.30
2022-09-04T21:51:58.370Z,16.28
2022-09-04T21:58:14.183Z,16.28
2022-09-04T22:02:29.530Z,16.27
2022-09-04T22:02:49.557Z,16.26
2022-09-04T22:04:26.105Z,16.27
2022-09-04T22:09:31.977Z,16.27
2022-09-04T22:13:46.419Z,16.27
2022-09-04T22:13:50.312Z,16.27
2022-09-04T22:16:28.968Z,16.25
2022-09-04T22:19:44.448Z,16.24
2022-09-04T22:22:26.188Z,16.22
2022-09-04T22:25:13.484Z,16.20
2022-09-04T22:28:17.293Z,16.17
2022-09-04T22:31:06.620Z,16.14
2022-09-04T22:34:16.226Z,16.10
2022-09-04T22:37:04.855Z,16.09
2022-09-04T22:40:06.287Z,16.09
2022-09-04T22:42:40.339Z,16.09
2022-09-04T22:45:37.036Z,16.08
2022-09-04T22:48:33.995Z,16.08
2022-09-04T22:51:49.542Z,16.05
2022-09-04T22:54:36.401Z,16.02
2022-09-04T22:57:11.371Z,16.01
2022-09-04T23:00:04.193Z,16.01
2022-09-04T23:03:08.850Z,16.02
2022-09-04T23:06:08.848Z,16.02
2022-09-04T23:13:47.939Z,16.02
2022-09-04T23:14:00.588Z,16.01
2022-09-04T23:16:00.320Z,15.99
2022-09-04T23:20:46.842Z,15.97
2022-09-04T23:26:33.102Z,15.95
2022-09-04T23:26:50.722Z,15.95
2022-09-04T23:28:27.054Z,15.95
2022-09-04T23:31:27.240Z,15.93
2022-09-04T23:34:37.346Z,15.91
2022-09-04T23:38:00.282Z,15.90
2022-09-04T23:40:53.749Z,15.88
2022-09-04T23:44:09.596Z,15.83
2022-09-04T23:47:47.109Z,15.79
2022-09-04T23:51:12.480Z,15.72
2022-09-04T23:54:30.659Z,15.68
2022-09-04T23:57:45.405Z,15.64
